sensor_id;sensor_type;location;lat;lon;timestamp;P1;durP1;ratioP1;P2;durP2;ratioP2
39300;SDS011;25019;42.626;23.380;2022-09-30T00:02:10;10.70;;;6.90;;
39300;SDS011;25019;42.626;23.380;2022-09-30T00:04:36;11.23;;;7.83;;
39300;SDS011;25019;42.626;23.380;2022-09-30T00:07:03;11.90;;;7.60;;
39300;SDS011;25019;42.626;23.380;2022-09-30T00:09:28;10.73;;;7.57;;
39300;SDS011;25019;42.626;23.380;2022-09-30T00:11:54;10.27;;;7.30;;
39300;SDS011;25019;42.626;23.380;2022-09-30T00:14:21;8.50;;;7.60;;
39300;SDS011;25019;42.626;23.380;2022-09-30T00:16:47;7.77;;;6.67;;
39300;SDS011;25019;42.626;23.380;2022-09-30T00:19:14;7.80;;;6.53;;
39300;SDS011;25019;42.626;23.380;2022-09-30T00:21:40;9.57;;;7.33;;
39300;SDS011;25019;42.626;23.380;2022-09-30T00:24:06;10.13;;;6.40;;
39300;SDS011;25019;42.626;23.380;2022-09-30T00:26:32;9.93;;;6.83;;
39300;SDS011;25019;42.626;23.380;2022-09-30T00:28:59;10.43;;;6.57;;
39300;SDS011;25019;42.626;23.380;2022-09-30T00:31:26;8.83;;;7.03;;
39300;SDS011;25019;42.626;23.380;2022-09-30T00:33:54;9.07;;;6.80;;
39300;SDS011;25019;42.626;23.380;2022-09-30T00:36:42;9.93;;;6.43;;
39300;SDS011;25019;42.626;23.380;2022-09-30T00:39:18;8.47;;;6.40;;
39300;SDS011;25019;42.626;23.380;2022-09-30T00:41:49;7.77;;;5.63;;
39300;SDS011;25019;42.626;23.380;2022-09-30T00:47:56;11.50;;;6.80;;
39300;SDS011;25019;42.626;23.380;2022-09-30T00:50:00;8.60;;;5.77;;
39300;SDS011;25019;42.626;23.380;2022-09-30T00:52:30;8.47;;;5.43;;
39300;SDS011;25019;42.626;23.380;2022-09-30T00:54:58;7.93;;;5.50;;
39300;SDS011;25019;42.626;23.380;2022-09-30T00:57:29;7.17;;;6.10;;
39300;SDS011;25019;42.626;23.380;2022-09-30T00:59:54;12.30;;;6.50;;
39300;SDS011;25019;42.626;23.380;2022-09-30T01:02:20;8.23;;;6.17;;
39300;SDS011;25019;42.626;23.380;2022-09-30T01:04:46;8.57;;;6.60;;
39300;SDS011;25019;42.626;23.380;2022-09-30T01:07:12;10.30;;;6.30;;
39300;SDS011;25019;42.626;23.380;2022-09-30T01:09:39;8.63;;;6.77;;
39300;SDS011;25019;42.626;23.380;2022-09-30T01:12:11;6.27;;;5.57;;
39300;SDS011;25019;42.626;23.380;2022-09-30T01:14:40;9.13;;;6.53;;
39300;SDS011;25019;42.626;23.380;2022-09-30T01:17:14;6.60;;;5.37;;
39300;SDS011;25019;42.626;23.380;2022-09-30T01:22:34;6.80;;;6.07;;
39300;SDS011;25019;42.626;23.380;2022-09-30T01:34:25;7.80;;;6.20;;
39300;SDS011;25019;42.626;23.380;2022-09-30T01:42:58;8.20;;;6.17;;
39300;SDS011;25019;42.626;23.380;2022-09-30T01:48:04;8.73;;;6.70;;
39300;SDS011;25019;42.626;23.380;2022-09-30T01:50:49;8.77;;;5.90;;
39300;SDS011;25019;42.626;23.380;2022-09-30T01:53:24;8.17;;;6.77;;
39300;SDS011;25019;42.626;23.380;2022-09-30T01:59:01;10.10;;;7.33;;
39300;SDS011;25019;42.626;23.380;2022-09-30T02:01:45;9.67;;;6.90;;
39300;SDS011;25019;42.626;23.380;2022-09-30T02:04:38;8.20;;;6.43;;
39300;SDS011;25019;42.626;23.380;2022-09-30T02:07:10;7.97;;;6.30;;
39300;SDS011;25019;42.626;23.380;2022-09-30T02:09:42;8.27;;;7.10;;
39300;SDS011;25019;42.626;23.380;2022-09-30T02:12:17;9.07;;;6.93;;
39300;SDS011;25019;42.626;23.380;2022-09-30T02:14:49;9.90;;;7.53;;
39300;SDS011;25019;42.626;23.380;2022-09-30T02:17:27;12.00;;;7.30;;
39300;SDS011;25019;42.626;23.380;2022-09-30T02:20:08;10.17;;;6.53;;
39300;SDS011;25019;42.626;23.380;2022-09-30T02:22:42;9.17;;;6.70;;
39300;SDS011;25019;42.626;23.380;2022-09-30T02:25:15;13.30;;;6.83;;
39300;SDS011;25019;42.626;23.380;2022-09-30T02:27:46;9.00;;;6.80;;
39300;SDS011;25019;42.626;23.380;2022-09-30T02:30:16;10.53;;;6.97;;
39300;SDS011;25019;42.626;23.380;2022-09-30T02:32:52;8.67;;;7.17;;
39300;SDS011;25019;42.626;23.380;2022-09-30T02:35:42;8.00;;;6.90;;
39300;SDS011;25019;42.626;23.380;2022-09-30T02:38:17;7.73;;;6.77;;
39300;SDS011;25019;42.626;23.380;2022-09-30T02:40:47;9.53;;;6.57;;
39300;SDS011;25019;42.626;23.380;2022-09-30T02:43:18;8.17;;;6.70;;
39300;SDS011;25019;42.626;23.380;2022-09-30T02:45:47;9.50;;;7.60;;
39300;SDS011;25019;42.626;23.380;2022-09-30T02:59:23;11.23;;;7.30;;
39300;SDS011;25019;42.626;23.380;2022-09-30T03:01:51;10.03;;;7.23;;
39300;SDS011;25019;42.626;23.380;2022-09-30T03:04:27;9.13;;;7.27;;
39300;SDS011;25019;42.626;23.380;2022-09-30T03:06:55;9.30;;;7.40;;
39300;SDS011;25019;42.626;23.380;2022-09-30T03:09:25;8.43;;;7.17;;
39300;SDS011;25019;42.626;23.380;2022-09-30T03:11:52;10.63;;;7.40;;
39300;SDS011;25019;42.626;23.380;2022-09-30T03:14:30;11.63;;;7.50;;
39300;SDS011;25019;42.626;23.380;2022-09-30T03:30:15;12.27;;;8.00;;
39300;SDS011;25019;42.626;23.380;2022-09-30T03:33:00;9.67;;;7.73;;
39300;SDS011;25019;42.626;23.380;2022-09-30T03:44:14;11.30;;;7.90;;
39300;SDS011;25019;42.626;23.380;2022-09-30T03:47:05;12.73;;;8.00;;
39300;SDS011;25019;42.626;23.380;2022-09-30T03:49:35;13.80;;;7.70;;
39300;SDS011;25019;42.626;23.380;2022-09-30T03:52:04;12.60;;;9.30;;
39300;SDS011;25019;42.626;23.380;2022-09-30T03:54:31;13.30;;;8.90;;
39300;SDS011;25019;42.626;23.380;2022-09-30T03:56:57;20.73;;;13.03;;
39300;SDS011;25019;42.626;23.380;2022-09-30T03:59:27;27.50;;;12.60;;
39300;SDS011;25019;42.626;23.380;2022-09-30T04:01:53;24.50;;;13.57;;
39300;SDS011;25019;42.626;23.380;2022-09-30T04:04:21;18.43;;;11.27;;
39300;SDS011;25019;42.626;23.380;2022-09-30T04:06:46;23.97;;;12.67;;
39300;SDS011;25019;42.626;23.380;2022-09-30T04:09:12;28.50;;;14.60;;
39300;SDS011;25019;42.626;23.380;2022-09-30T04:11:38;30.83;;;14.00;;
39300;SDS011;25019;42.626;23.380;2022-09-30T04:14:03;19.97;;;12.13;;
39300;SDS011;25019;42.626;23.380;2022-09-30T04:16:30;43.37;;;13.70;;
39300;SDS011;25019;42.626;23.380;2022-09-30T04:18:57;31.10;;;13.07;;
39300;SDS011;25019;42.626;23.380;2022-09-30T04:21:23;42.03;;;14.23;;
39300;SDS011;25019;42.626;23.380;2022-09-30T04:23:49;43.77;;;15.60;;
39300;SDS011;25019;42.626;23.380;2022-09-30T04:26:15;43.77;;;15.30;;
39300;SDS011;25019;42.626;23.380;2022-09-30T04:28:43;42.90;;;14.23;;
39300;SDS011;25019;42.626;23.380;2022-09-30T04:31:09;35.73;;;14.83;;
39300;SDS011;25019;42.626;23.380;2022-09-30T04:33:36;35.90;;;15.10;;
39300;SDS011;25019;42.626;23.380;2022-09-30T04:36:03;60.80;;;18.07;;
39300;SDS011;25019;42.626;23.380;2022-09-30T04:38:29;43.67;;;16.30;;
39300;SDS011;25019;42.626;23.380;2022-09-30T04:40:55;51.97;;;16.90;;
39300;SDS011;25019;42.626;23.380;2022-09-30T04:43:21;54.43;;;17.83;;
39300;SDS011;25019;42.626;23.380;2022-09-30T04:45:47;41.93;;;17.00;;
39300;SDS011;25019;42.626;23.380;2022-09-30T04:48:14;46.07;;;17.80;;
39300;SDS011;25019;42.626;23.380;2022-09-30T04:50:41;69.97;;;17.57;;
39300;SDS011;25019;42.626;23.380;2022-09-30T04:53:12;43.63;;;16.87;;
39300;SDS011;25019;42.626;23.380;2022-09-30T04:55:42;46.53;;;17.17;;
39300;SDS011;25019;42.626;23.380;2022-09-30T04:58:09;45.17;;;17.80;;
39300;SDS011;25019;42.626;23.380;2022-09-30T05:00:36;40.60;;;18.03;;
39300;SDS011;25019;42.626;23.380;2022-09-30T05:03:01;48.37;;;17.33;;
39300;SDS011;25019;42.626;23.380;2022-09-30T05:05:27;40.77;;;18.03;;
39300;SDS011;25019;42.626;23.380;2022-09-30T05:07:58;42.07;;;18.20;;
39300;SDS011;25019;42.626;23.380;2022-09-30T05:10:26;37.33;;;18.10;;
39300;SDS011;25019;42.626;23.380;2022-09-30T05:12:54;52.53;;;19.13;;
39300;SDS011;25019;42.626;23.380;2022-09-30T05:15:21;47.40;;;16.87;;
39300;SDS011;25019;42.626;23.380;2022-09-30T05:17:49;34.03;;;16.67;;
39300;SDS011;25019;42.626;23.380;2022-09-30T05:20:15;35.77;;;16.47;;
39300;SDS011;25019;42.626;23.380;2022-09-30T05:22:41;40.77;;;18.60;;
39300;SDS011;25019;42.626;23.380;2022-09-30T05:25:06;30.30;;;15.17;;
39300;SDS011;25019;42.626;23.380;2022-09-30T05:27:32;33.53;;;16.77;;
39300;SDS011;25019;42.626;23.380;2022-09-30T05:29:58;35.60;;;17.20;;
39300;SDS011;25019;42.626;23.380;2022-09-30T05:32:23;31.27;;;17.23;;
39300;SDS011;25019;42.626;23.380;2022-09-30T05:34:49;34.67;;;18.10;;
39300;SDS011;25019;42.626;23.380;2022-09-30T05:37:15;31.57;;;17.53;;
39300;SDS011;25019;42.626;23.380;2022-09-30T05:39:40;30.30;;;16.97;;
39300;SDS011;25019;42.626;23.380;2022-09-30T05:42:06;33.37;;;17.93;;
39300;SDS011;25019;42.626;23.380;2022-09-30T05:44:33;37.77;;;18.80;;
39300;SDS011;25019;42.626;23.380;2022-09-30T05:46:58;27.87;;;16.93;;
39300;SDS011;25019;42.626;23.380;2022-09-30T05:49:24;30.07;;;17.53;;
39300;SDS011;25019;42.626;23.380;2022-09-30T05:51:50;32.27;;;18.77;;
39300;SDS011;25019;42.626;23.380;2022-09-30T05:54:16;33.77;;;19.40;;
39300;SDS011;25019;42.626;23.380;2022-09-30T05:56:42;27.47;;;18.33;;
39300;SDS011;25019;42.626;23.380;2022-09-30T05:59:08;27.40;;;17.27;;
39300;SDS011;25019;42.626;23.380;2022-09-30T06:01:33;22.73;;;15.93;;
39300;SDS011;25019;42.626;23.380;2022-09-30T06:03:59;23.47;;;15.63;;
39300;SDS011;25019;42.626;23.380;2022-09-30T06:06:25;26.50;;;17.70;;
39300;SDS011;25019;42.626;23.380;2022-09-30T06:08:53;27.27;;;18.13;;
39300;SDS011;25019;42.626;23.380;2022-09-30T06:11:20;23.43;;;16.63;;
39300;SDS011;25019;42.626;23.380;2022-09-30T06:13:49;22.90;;;16.13;;
39300;SDS011;25019;42.626;23.380;2022-09-30T06:16:15;25.50;;;16.80;;
39300;SDS011;25019;42.626;23.380;2022-09-30T06:18:42;22.60;;;16.17;;
39300;SDS011;25019;42.626;23.380;2022-09-30T06:21:10;24.13;;;15.80;;
39300;SDS011;25019;42.626;23.380;2022-09-30T06:23:37;21.47;;;16.37;;
39300;SDS011;25019;42.626;23.380;2022-09-30T06:26:04;21.73;;;15.43;;
39300;SDS011;25019;42.626;23.380;2022-09-30T06:28:32;18.27;;;14.17;;
39300;SDS011;25019;42.626;23.380;2022-09-30T06:30:59;21.50;;;14.83;;
39300;SDS011;25019;42.626;23.380;2022-09-30T06:33:29;18.73;;;13.50;;
39300;SDS011;25019;42.626;23.380;2022-09-30T06:35:56;20.37;;;14.63;;
39300;SDS011;25019;42.626;23.380;2022-09-30T06:38:22;20.07;;;15.10;;
39300;SDS011;25019;42.626;23.380;2022-09-30T06:40:48;22.00;;;15.17;;
39300;SDS011;25019;42.626;23.380;2022-09-30T06:43:15;18.17;;;13.53;;
39300;SDS011;25019;42.626;23.380;2022-09-30T06:45:41;17.00;;;13.57;;
39300;SDS011;25019;42.626;23.380;2022-09-30T06:48:10;16.53;;;13.27;;
39300;SDS011;25019;42.626;23.380;2022-09-30T06:50:36;16.47;;;12.43;;
39300;SDS011;25019;42.626;23.380;2022-09-30T06:53:04;14.80;;;12.10;;
39300;SDS011;25019;42.626;23.380;2022-09-30T06:55:31;17.00;;;12.33;;
39300;SDS011;25019;42.626;23.380;2022-09-30T06:58:00;14.97;;;11.93;;
39300;SDS011;25019;42.626;23.380;2022-09-30T07:00:26;16.43;;;11.70;;
39300;SDS011;25019;42.626;23.380;2022-09-30T07:02:55;15.60;;;11.67;;
39300;SDS011;25019;42.626;23.380;2022-09-30T07:05:21;13.83;;;11.77;;
39300;SDS011;25019;42.626;23.380;2022-09-30T07:07:49;16.53;;;11.73;;
39300;SDS011;25019;42.626;23.380;2022-09-30T07:10:16;17.97;;;12.83;;
39300;SDS011;25019;42.626;23.380;2022-09-30T07:12:41;19.70;;;13.30;;
39300;SDS011;25019;42.626;23.380;2022-09-30T07:15:07;17.00;;;13.10;;
39300;SDS011;25019;42.626;23.380;2022-09-30T07:17:33;18.33;;;14.03;;
39300;SDS011;25019;42.626;23.380;2022-09-30T07:19:58;21.17;;;15.20;;
39300;SDS011;25019;42.626;23.380;2022-09-30T07:22:26;19.03;;;14.67;;
39300;SDS011;25019;42.626;23.380;2022-09-30T07:24:58;29.47;;;19.97;;
39300;SDS011;25019;42.626;23.380;2022-09-30T07:27:26;23.37;;;17.37;;
39300;SDS011;25019;42.626;23.380;2022-09-30T07:29:53;24.13;;;18.07;;
39300;SDS011;25019;42.626;23.380;2022-09-30T07:32:21;25.57;;;18.93;;
39300;SDS011;25019;42.626;23.380;2022-09-30T07:34:47;28.73;;;20.23;;
39300;SDS011;25019;42.626;23.380;2022-09-30T07:37:14;31.83;;;21.03;;
39300;SDS011;25019;42.626;23.380;2022-09-30T07:39:41;27.93;;;20.30;;
39300;SDS011;25019;42.626;23.380;2022-09-30T07:42:09;27.20;;;19.97;;
39300;SDS011;25019;42.626;23.380;2022-09-30T07:44:35;31.03;;;20.03;;
39300;SDS011;25019;42.626;23.380;2022-09-30T07:47:06;30.40;;;21.50;;
39300;SDS011;25019;42.626;23.380;2022-09-30T07:49:32;26.17;;;19.93;;
39300;SDS011;25019;42.626;23.380;2022-09-30T07:51:58;29.73;;;19.40;;
39300;SDS011;25019;42.626;23.380;2022-09-30T07:54:25;27.23;;;19.40;;
39300;SDS011;25019;42.626;23.380;2022-09-30T07:56:52;30.23;;;19.33;;
39300;SDS011;25019;42.626;23.380;2022-09-30T07:59:19;27.47;;;18.57;;
39300;SDS011;25019;42.626;23.380;2022-09-30T08:01:45;28.63;;;19.23;;
39300;SDS011;25019;42.626;23.380;2022-09-30T08:04:12;25.80;;;18.83;;
39300;SDS011;25019;42.626;23.380;2022-09-30T08:06:40;26.20;;;16.17;;
39300;SDS011;25019;42.626;23.380;2022-09-30T08:09:08;15.83;;;12.13;;
39300;SDS011;25019;42.626;23.380;2022-09-30T08:11:34;16.27;;;11.93;;
39300;SDS011;25019;42.626;23.380;2022-09-30T08:14:02;13.53;;;10.97;;
39300;SDS011;25019;42.626;23.380;2022-09-30T08:16:28;16.20;;;12.30;;
39300;SDS011;25019;42.626;23.380;2022-09-30T08:18:55;16.43;;;11.50;;
39300;SDS011;25019;42.626;23.380;2022-09-30T08:21:22;11.77;;;8.80;;
39300;SDS011;25019;42.626;23.380;2022-09-30T08:23:48;11.30;;;7.90;;
39300;SDS011;25019;42.626;23.380;2022-09-30T08:26:14;10.77;;;7.40;;
39300;SDS011;25019;42.626;23.380;2022-09-30T08:28:40;10.80;;;7.63;;
39300;SDS011;25019;42.626;23.380;2022-09-30T08:33:37;9.50;;;7.40;;
39300;SDS011;25019;42.626;23.380;2022-09-30T08:36:07;11.63;;;7.40;;
39300;SDS011;25019;42.626;23.380;2022-09-30T08:38:34;9.87;;;7.40;;
39300;SDS011;25019;42.626;23.380;2022-09-30T08:48:52;8.07;;;6.57;;
39300;SDS011;25019;42.626;23.380;2022-09-30T08:51:39;10.93;;;7.97;;
39300;SDS011;25019;42.626;23.380;2022-09-30T08:54:10;9.40;;;7.47;;
39300;SDS011;25019;42.626;23.380;2022-09-30T08:56:39;8.47;;;7.23;;
39300;SDS011;25019;42.626;23.380;2022-09-30T09:01:52;8.50;;;7.40;;
39300;SDS011;25019;42.626;23.380;2022-09-30T09:04:25;10.20;;;7.03;;
39300;SDS011;25019;42.626;23.380;2022-09-30T09:18:01;7.17;;;5.77;;
39300;SDS011;25019;42.626;23.380;2022-09-30T09:23:45;9.50;;;4.77;;
39300;SDS011;25019;42.626;23.380;2022-09-30T09:26:12;10.87;;;5.03;;
39300;SDS011;25019;42.626;23.380;2022-09-30T09:28:41;8.07;;;5.33;;
39300;SDS011;25019;42.626;23.380;2022-09-30T09:31:11;9.23;;;5.93;;
39300;SDS011;25019;42.626;23.380;2022-09-30T09:33:41;11.07;;;6.00;;
39300;SDS011;25019;42.626;23.380;2022-09-30T09:36:13;10.33;;;6.40;;
39300;SDS011;25019;42.626;23.380;2022-09-30T09:52:04;8.07;;;5.30;;
39300;SDS011;25019;42.626;23.380;2022-09-30T09:54:49;7.47;;;4.73;;
39300;SDS011;25019;42.626;23.380;2022-09-30T09:57:17;8.03;;;4.97;;
39300;SDS011;25019;42.626;23.380;2022-09-30T10:02:27;6.17;;;4.87;;
39300;SDS011;25019;42.626;23.380;2022-09-30T10:04:56;5.03;;;3.50;;
39300;SDS011;25019;42.626;23.380;2022-09-30T10:07:27;6.73;;;3.50;;
39300;SDS011;25019;42.626;23.380;2022-09-30T10:12:44;8.37;;;4.10;;
39300;SDS011;25019;42.626;23.380;2022-09-30T10:15:18;7.50;;;4.23;;
39300;SDS011;25019;42.626;23.380;2022-09-30T10:17:49;9.50;;;4.20;;
39300;SDS011;25019;42.626;23.380;2022-09-30T10:20:28;6.10;;;3.50;;
39300;SDS011;25019;42.626;23.380;2022-09-30T10:23:07;5.13;;;3.60;;
39300;SDS011;25019;42.626;23.380;2022-09-30T10:28:25;3.43;;;2.83;;
39300;SDS011;25019;42.626;23.380;2022-09-30T10:30:55;4.77;;;2.90;;
39300;SDS011;25019;42.626;23.380;2022-09-30T10:33:25;5.73;;;3.47;;
39300;SDS011;25019;42.626;23.380;2022-09-30T10:35:56;4.97;;;2.90;;
39300;SDS011;25019;42.626;23.380;2022-09-30T10:41:29;4.43;;;2.93;;
39300;SDS011;25019;42.626;23.380;2022-09-30T10:43:57;4.67;;;3.20;;
39300;SDS011;25019;42.626;23.380;2022-09-30T10:46:27;5.07;;;3.07;;
39300;SDS011;25019;42.626;23.380;2022-09-30T10:48:57;4.47;;;2.90;;
39300;SDS011;25019;42.626;23.380;2022-09-30T10:51:28;5.70;;;3.13;;
39300;SDS011;25019;42.626;23.380;2022-09-30T10:53:58;5.83;;;2.93;;
39300;SDS011;25019;42.626;23.380;2022-09-30T10:56:30;6.53;;;3.70;;
39300;SDS011;25019;42.626;23.380;2022-09-30T10:58:58;5.97;;;4.10;;
39300;SDS011;25019;42.626;23.380;2022-09-30T11:01:29;3.50;;;3.00;;
39300;SDS011;25019;42.626;23.380;2022-09-30T11:04:04;3.93;;;3.13;;
39300;SDS011;25019;42.626;23.380;2022-09-30T11:06:40;7.20;;;2.83;;
39300;SDS011;25019;42.626;23.380;2022-09-30T11:09:13;3.73;;;2.60;;
39300;SDS011;25019;42.626;23.380;2022-09-30T11:11:46;3.17;;;2.57;;
39300;SDS011;25019;42.626;23.380;2022-09-30T11:19:40;5.57;;;3.10;;
39300;SDS011;25019;42.626;23.380;2022-09-30T11:24:51;4.07;;;2.90;;
39300;SDS011;25019;42.626;23.380;2022-09-30T11:38:55;3.30;;;2.60;;
39300;SDS011;25019;42.626;23.380;2022-09-30T11:44:20;5.10;;;2.83;;
39300;SDS011;25019;42.626;23.380;2022-09-30T11:49:38;3.77;;;2.80;;
39300;SDS011;25019;42.626;23.380;2022-09-30T11:57:36;3.17;;;2.37;;
39300;SDS011;25019;42.626;23.380;2022-09-30T12:00:16;3.27;;;2.10;;
39300;SDS011;25019;42.626;23.380;2022-09-30T12:08:19;5.67;;;2.50;;
39300;SDS011;25019;42.626;23.380;2022-09-30T12:10:53;7.03;;;2.90;;
39300;SDS011;25019;42.626;23.380;2022-09-30T12:13:24;3.50;;;2.17;;
39300;SDS011;25019;42.626;23.380;2022-09-30T12:15:55;2.57;;;2.37;;
39300;SDS011;25019;42.626;23.380;2022-09-30T12:18:27;5.00;;;2.70;;
39300;SDS011;25019;42.626;23.380;2022-09-30T12:20:59;23.17;;;17.60;;
39300;SDS011;25019;42.626;23.380;2022-09-30T12:25:58;5.70;;;3.03;;
39300;SDS011;25019;42.626;23.380;2022-09-30T12:28:28;4.20;;;2.50;;
39300;SDS011;25019;42.626;23.380;2022-09-30T12:33:48;2.80;;;1.67;;
39300;SDS011;25019;42.626;23.380;2022-09-30T12:37:04;3.43;;;1.67;;
39300;SDS011;25019;42.626;23.380;2022-09-30T12:44:54;3.33;;;1.73;;
39300;SDS011;25019;42.626;23.380;2022-09-30T12:47:52;8.83;;;5.97;;
39300;SDS011;25019;42.626;23.380;2022-09-30T12:50:28;2.07;;;1.47;;
39300;SDS011;25019;42.626;23.380;2022-09-30T12:53:22;3.03;;;1.90;;
39300;SDS011;25019;42.626;23.380;2022-09-30T12:55:51;1.67;;;1.47;;
39300;SDS011;25019;42.626;23.380;2022-09-30T12:58:22;1.53;;;1.30;;
39300;SDS011;25019;42.626;23.380;2022-09-30T13:01:51;3.17;;;1.60;;
39300;SDS011;25019;42.626;23.380;2022-09-30T13:06:23;2.57;;;1.63;;
39300;SDS011;25019;42.626;23.380;2022-09-30T13:11:44;3.53;;;1.70;;
39300;SDS011;25019;42.626;23.380;2022-09-30T13:14:16;3.17;;;1.80;;
39300;SDS011;25019;42.626;23.380;2022-09-30T13:16:58;3.63;;;1.80;;
39300;SDS011;25019;42.626;23.380;2022-09-30T13:19:51;1.83;;;1.63;;
39300;SDS011;25019;42.626;23.380;2022-09-30T13:30:38;2.27;;;1.50;;
39300;SDS011;25019;42.626;23.380;2022-09-30T13:35:56;2.47;;;1.60;;
39300;SDS011;25019;42.626;23.380;2022-09-30T13:38:32;4.47;;;1.13;;
39300;SDS011;25019;42.626;23.380;2022-09-30T13:41:21;2.97;;;1.47;;
39300;SDS011;25019;42.626;23.380;2022-09-30T13:43:52;1.40;;;1.30;;
39300;SDS011;25019;42.626;23.380;2022-09-30T13:46:28;2.57;;;1.43;;
39300;SDS011;25019;42.626;23.380;2022-09-30T13:49:16;4.07;;;1.80;;
39300;SDS011;25019;42.626;23.380;2022-09-30T13:51:46;2.47;;;1.50;;
39300;SDS011;25019;42.626;23.380;2022-09-30T13:56:50;2.73;;;1.20;;
39300;SDS011;25019;42.626;23.380;2022-09-30T14:13:01;1.97;;;0.80;;
39300;SDS011;25019;42.626;23.380;2022-09-30T14:26:47;8.53;;;7.13;;
39300;SDS011;25019;42.626;23.380;2022-09-30T14:29:26;2.97;;;1.73;;
39300;SDS011;25019;42.626;23.380;2022-09-30T14:32:19;3.33;;;1.37;;
39300;SDS011;25019;42.626;23.380;2022-09-30T14:38:07;4.93;;;2.80;;
39300;SDS011;25019;42.626;23.380;2022-09-30T14:40:47;4.80;;;2.70;;
39300;SDS011;25019;42.626;23.380;2022-09-30T14:43:21;7.37;;;2.27;;
39300;SDS011;25019;42.626;23.380;2022-09-30T14:45:56;5.53;;;1.90;;
39300;SDS011;25019;42.626;23.380;2022-09-30T14:48:27;1.93;;;1.17;;
39300;SDS011;25019;42.626;23.380;2022-09-30T14:51:04;1.87;;;1.30;;
39300;SDS011;25019;42.626;23.380;2022-09-30T14:53:34;2.77;;;2.27;;
39300;SDS011;25019;42.626;23.380;2022-09-30T14:56:13;2.00;;;1.67;;
39300;SDS011;25019;42.626;23.380;2022-09-30T14:58:46;2.80;;;1.40;;
39300;SDS011;25019;42.626;23.380;2022-09-30T15:01:17;10.10;;;7.97;;
39300;SDS011;25019;42.626;23.380;2022-09-30T15:03:47;8.03;;;4.90;;
39300;SDS011;25019;42.626;23.380;2022-09-30T15:06:23;7.33;;;3.00;;
39300;SDS011;25019;42.626;23.380;2022-09-30T15:09:03;6.20;;;2.07;;
39300;SDS011;25019;42.626;23.380;2022-09-30T15:11:32;2.90;;;1.83;;
39300;SDS011;25019;42.626;23.380;2022-09-30T15:14:01;3.90;;;2.10;;
39300;SDS011;25019;42.626;23.380;2022-09-30T15:16:45;5.80;;;2.23;;
39300;SDS011;25019;42.626;23.380;2022-09-30T15:19:22;3.57;;;1.73;;
39300;SDS011;25019;42.626;23.380;2022-09-30T15:21:51;3.07;;;1.70;;
39300;SDS011;25019;42.626;23.380;2022-09-30T15:24:19;4.10;;;1.73;;
39300;SDS011;25019;42.626;23.380;2022-09-30T15:26:47;3.30;;;1.50;;
39300;SDS011;25019;42.626;23.380;2022-09-30T15:29:15;2.47;;;1.70;;
39300;SDS011;25019;42.626;23.380;2022-09-30T15:31:43;4.67;;;1.63;;
39300;SDS011;25019;42.626;23.380;2022-09-30T15:34:18;5.37;;;3.57;;
39300;SDS011;25019;42.626;23.380;2022-09-30T15:36:47;5.87;;;2.43;;
39300;SDS011;25019;42.626;23.380;2022-09-30T15:41:48;3.07;;;2.00;;
39300;SDS011;25019;42.626;23.380;2022-09-30T15:44:16;7.47;;;2.20;;
39300;SDS011;25019;42.626;23.380;2022-09-30T15:47:00;3.00;;;1.90;;
39300;SDS011;25019;42.626;23.380;2022-09-30T15:49:29;4.80;;;1.80;;
39300;SDS011;25019;42.626;23.380;2022-09-30T15:54:53;5.37;;;2.07;;
39300;SDS011;25019;42.626;23.380;2022-09-30T15:57:41;5.63;;;2.50;;
39300;SDS011;25019;42.626;23.380;2022-09-30T16:00:31;4.33;;;2.47;;
39300;SDS011;25019;42.626;23.380;2022-09-30T16:05:44;5.90;;;2.70;;
39300;SDS011;25019;42.626;23.380;2022-09-30T16:08:17;4.27;;;2.03;;
39300;SDS011;25019;42.626;23.380;2022-09-30T16:10:48;6.60;;;2.30;;
39300;SDS011;25019;42.626;23.380;2022-09-30T16:13:16;3.67;;;2.50;;
39300;SDS011;25019;42.626;23.380;2022-09-30T16:15:48;10.07;;;2.80;;
39300;SDS011;25019;42.626;23.380;2022-09-30T16:18:18;5.60;;;2.57;;
39300;SDS011;25019;42.626;23.380;2022-09-30T16:23:26;5.47;;;3.37;;
39300;SDS011;25019;42.626;23.380;2022-09-30T16:26:16;4.80;;;3.50;;
39300;SDS011;25019;42.626;23.380;2022-09-30T16:28:43;8.43;;;3.13;;
39300;SDS011;25019;42.626;23.380;2022-09-30T16:31:12;6.53;;;3.13;;
39300;SDS011;25019;42.626;23.380;2022-09-30T16:33:40;6.27;;;3.40;;
39300;SDS011;25019;42.626;23.380;2022-09-30T16:36:07;5.47;;;3.07;;
39300;SDS011;25019;42.626;23.380;2022-09-30T16:38:34;5.13;;;3.07;;
39300;SDS011;25019;42.626;23.380;2022-09-30T16:41:02;5.57;;;2.83;;
39300;SDS011;25019;42.626;23.380;2022-09-30T16:43:29;13.53;;;8.40;;
39300;SDS011;25019;42.626;23.380;2022-09-30T16:45:56;5.87;;;2.80;;
39300;SDS011;25019;42.626;23.380;2022-09-30T16:48:24;3.90;;;2.40;;
39300;SDS011;25019;42.626;23.380;2022-09-30T16:53:27;6.90;;;3.30;;
39300;SDS011;25019;42.626;23.380;2022-09-30T16:55:53;6.50;;;3.13;;
39300;SDS011;25019;42.626;23.380;2022-09-30T16:58:19;3.47;;;2.57;;
39300;SDS011;25019;42.626;23.380;2022-09-30T17:00:44;1.87;;;1.53;;
39300;SDS011;25019;42.626;23.380;2022-09-30T17:03:11;16.70;;;12.27;;
39300;SDS011;25019;42.626;23.380;2022-09-30T17:05:41;4.40;;;1.83;;
39300;SDS011;25019;42.626;23.380;2022-09-30T17:08:12;3.00;;;1.90;;
39300;SDS011;25019;42.626;23.380;2022-09-30T17:10:44;5.70;;;2.10;;
39300;SDS011;25019;42.626;23.380;2022-09-30T17:13:11;3.53;;;1.87;;
39300;SDS011;25019;42.626;23.380;2022-09-30T17:15:40;2.77;;;1.73;;
39300;SDS011;25019;42.626;23.380;2022-09-30T17:18:07;4.43;;;2.23;;
39300;SDS011;25019;42.626;23.380;2022-09-30T17:20:34;5.60;;;3.23;;
39300;SDS011;25019;42.626;23.380;2022-09-30T17:23:01;10.47;;;7.27;;
39300;SDS011;25019;42.626;23.380;2022-09-30T17:25:27;5.23;;;3.10;;
39300;SDS011;25019;42.626;23.380;2022-09-30T17:27:53;3.43;;;2.17;;
39300;SDS011;25019;42.626;23.380;2022-09-30T17:30:19;29.30;;;20.13;;
39300;SDS011;25019;42.626;23.380;2022-09-30T17:32:45;39.67;;;27.73;;
39300;SDS011;25019;42.626;23.380;2022-09-30T17:35:12;28.10;;;22.87;;
39300;SDS011;25019;42.626;23.380;2022-09-30T17:37:38;3.87;;;2.53;;
39300;SDS011;25019;42.626;23.380;2022-09-30T17:40:04;12.47;;;9.73;;
39300;SDS011;25019;42.626;23.380;2022-09-30T17:42:51;6.80;;;4.57;;
39300;SDS011;25019;42.626;23.380;2022-09-30T17:45:34;3.83;;;2.47;;
39300;SDS011;25019;42.626;23.380;2022-09-30T17:48:05;4.43;;;3.57;;
39300;SDS011;25019;42.626;23.380;2022-09-30T17:50:34;10.67;;;6.60;;
39300;SDS011;25019;42.626;23.380;2022-09-30T17:53:03;14.17;;;11.73;;
39300;SDS011;25019;42.626;23.380;2022-09-30T17:55:30;8.60;;;6.93;;
39300;SDS011;25019;42.626;23.380;2022-09-30T17:57:58;7.60;;;4.80;;
39300;SDS011;25019;42.626;23.380;2022-09-30T18:00:25;24.10;;;19.57;;
39300;SDS011;25019;42.626;23.380;2022-09-30T18:02:52;33.27;;;25.80;;
39300;SDS011;25019;42.626;23.380;2022-09-30T18:05:19;8.17;;;6.63;;
39300;SDS011;25019;42.626;23.380;2022-09-30T18:07:45;6.53;;;3.70;;
39300;SDS011;25019;42.626;23.380;2022-09-30T18:10:11;6.13;;;5.17;;
39300;SDS011;25019;42.626;23.380;2022-09-30T18:12:37;9.90;;;7.50;;
39300;SDS011;25019;42.626;23.380;2022-09-30T18:15:02;4.20;;;2.50;;
39300;SDS011;25019;42.626;23.380;2022-09-30T18:17:28;7.53;;;3.00;;
39300;SDS011;25019;42.626;23.380;2022-09-30T18:19:54;3.00;;;2.43;;
39300;SDS011;25019;42.626;23.380;2022-09-30T18:22:19;6.33;;;4.57;;